»·PEaware :: N19PW L52-L88

N19PW :: L52-L88

FLIGHT INFORMATION

Flight Status: Arrived
Operator: Privately registered:
United States
More flights under this callsign
Pilot: Kevin M. (26328)
Aircraft: CESSNA 172 SKYHAWK
(C172)
More flights by this aircraft type
Origin: L52 Oceano Co
United States
Destination: L88 New Cuyama
United States
More flights between these airports :: More routes between these airports
Route: L52-WYNNR-L88
File this flight plan on PilotEdge
Remarks:
Altitude:
(Current/Filed)
7,500ft
Speed:
(Current/Filed)
110kts
Departed: 23-Sep-19 08:30 PM
Arrived: 23-Sep-19 09:05 PM
Distance/Time
Traveled:
47nm/0:35
Distance/Time
To Go:
Arrived

Flight Plot

Page will automatically refresh every two minutes.

Flight plan parsing failed; only flown route is shown


Map Options




Map Legend


Flown Route
Filed Route
Departure Airport
Arrival Airport
Navaid (VOR, NDB)
Fix

Horizontal Profiles

Position Reports

Time Latitude Longitude Heading Altitude Ground
Speed
23-Sep-19 20:23 35.102390 -120.622705 0 16ft 0kts
23-Sep-19 20:24 35.102390 -120.622705 206 16ft 0kts
23-Sep-19 20:25 35.102390 -120.622705 205 16ft 0kts
23-Sep-19 20:26 35.102390 -120.622705 205 16ft 0kts
23-Sep-19 20:27 35.102225 -120.622601 118 16ft 7kts
23-Sep-19 20:28 35.101421 -120.622457 213 16ft 11kts
23-Sep-19 20:28 35.099521 -120.619393 84 17ft 5kts
23-Sep-19 20:30 35.100742 -120.620768 303 17ft 53kts
23-Sep-19 20:31 35.108401 -120.643603 240 744ft 77kts
23-Sep-19 20:32 35.090945 -120.636955 116 1509ft 78kts
23-Sep-19 20:32 35.084763 -120.616522 91 2148ft 76kts
23-Sep-19 20:34 35.092449 -120.583510 64 3064ft 90kts
23-Sep-19 20:35 35.101140 -120.556051 78 3984ft 87kts
23-Sep-19 20:35 35.104178 -120.531442 70 4665ft 87kts
23-Sep-19 20:36 35.100812 -120.502267 138 5233ft 107kts
23-Sep-19 20:38 35.095077 -120.467055 73 5939ft 94kts
23-Sep-19 20:38 35.099042 -120.440575 75 6292ft 106kts
23-Sep-19 20:39 35.106360 -120.404498 61 6271ft 115kts
23-Sep-19 20:40 35.117153 -120.371275 76 6445ft 94kts
23-Sep-19 20:41 35.121932 -120.340179 85 6788ft 87kts
23-Sep-19 20:42 35.120325 -120.312286 90 7348ft 81kts
23-Sep-19 20:43 35.116725 -120.281565 92 7521ft 103kts
23-Sep-19 20:44 35.116708 -120.245220 80 7497ft 110kts
23-Sep-19 20:45 35.118806 -120.209315 104 7546ft 112kts
23-Sep-19 20:46 35.107553 -120.172760 105 7446ft 116kts
23-Sep-19 20:47 35.096115 -120.136462 101 7509ft 108kts
23-Sep-19 20:48 35.088051 -120.098394 94 7353ft 117kts
23-Sep-19 20:49 35.074655 -120.061275 109 7330ft 121kts
23-Sep-19 20:50 35.061200 -120.025437 119 7399ft 110kts
23-Sep-19 20:51 35.048953 -119.991870 115 7417ft 108kts
23-Sep-19 20:52 35.036724 -119.960656 120 7442ft 96kts
23-Sep-19 20:53 35.024571 -119.930547 122 7390ft 99kts
23-Sep-19 20:54 35.010166 -119.901410 119 7272ft 102kts
23-Sep-19 20:55 34.996103 -119.871038 121 6668ft 97kts
23-Sep-19 20:56 34.982801 -119.838591 118 5811ft 116kts
23-Sep-19 20:57 34.969434 -119.800422 107 4811ft 132kts
23-Sep-19 20:58 34.957492 -119.759883 113 4295ft 125kts
23-Sep-19 20:59 34.940514 -119.721779 119 3877ft 127kts
23-Sep-19 21:00 34.920466 -119.688093 107 3610ft 119kts
23-Sep-19 21:01 34.922831 -119.653527 58 3091ft 101kts
23-Sep-19 21:02 34.933291 -119.653670 270 2713ft 61kts
23-Sep-19 21:03 34.935395 -119.673090 283 2324ft 56kts
23-Sep-19 21:04 34.940588 -119.687102 296 2170ft 28kts
23-Sep-19 21:05 34.942792 -119.690568 100 2156ft 9kts
23-Sep-19 21:06 34.942487 -119.689870 359 2158ft 0kts
23-Sep-19 21:07 34.942487 -119.689870 359 2158ft 0kts
23-Sep-19 21:08 34.942487 -119.689870 359 2158ft 0kts
23-Sep-19 21:09 34.942487 -119.689870 359 2158ft 0kts
23-Sep-19 21:10 34.942487 -119.689870 359 2158ft 0kts
23-Sep-19 21:11 34.942487 -119.689870 359 2158ft 0kts
23-Sep-19 21:12 34.942487 -119.689870 359 2158ft 0kts
23-Sep-19 21:13 34.942487 -119.689870 359 2158ft 0kts
23-Sep-19 21:14 34.942487 -119.689870 359 2158ft 0kts
23-Sep-19 21:15 34.942883 -119.690269 204 2159ft 0kts
23-Sep-19 21:16 34.942883 -119.690269 204 2159ft 0kts
23-Sep-19 21:17 34.942883 -119.690269 204 2159ft 0kts
23-Sep-19 21:18 34.942883 -119.690269 204 2159ft 0kts

Navigation Log

Ident Type
Flight plan parsing failed, navigation log unavailable